Time;durP1;ratioP1;P1;durP2;ratioP2;P2;SDS_P1;SDS_P2;PMS_P1;PMS_P2;Temp;Humidity;BMP_temperature;BMP_pressure;BME280_temperature;BME280_humidity;BME280_pressure;Samples;Min_cycle;Max_cycle;Signal;HPM_P1;HPM_P2
2021/08/24 00:00:29;;;;;;;1.75;0.52;;;16.90;77.10;;;;;;4921919;29;20036;-87
2021/08/24 00:03:01;;;;;;;0.80;0.35;;;16.90;77.10;;;;;;4911089;29;20051;-87
2021/08/24 00:05:36;;;;;;;1.90;0.40;;;16.90;77.20;;;;;;4910034;29;20048;-87
2021/08/24 00:08:04;;;;;;;;;;;16.90;77.20;;;;;;4903322;29;20048;-87
2021/08/24 00:10:41;;;;;;;1.02;0.38;;;16.80;77.30;;;;;;4903284;29;19974;-87
2021/08/24 00:13:08;;;;;;;1.65;0.63;;;16.80;77.40;;;;;;4910241;29;20060;-88
2021/08/24 00:15:36;;;;;;;0.80;0.30;;;16.80;77.40;;;;;;4911326;29;20052;-87
2021/08/24 00:18:04;;;;;;;1.15;0.22;;;16.80;77.40;;;;;;4925963;29;20071;-87
2021/08/24 00:20:31;;;;;;;1.10;0.40;;;16.70;77.30;;;;;;4888867;29;20048;-87
2021/08/24 00:23:05;;;;;;;1.00;0.32;;;16.80;77.40;;;;;;4903256;29;20048;-87
2021/08/24 00:25:33;;;;;;;0.98;0.30;;;16.70;77.40;;;;;;4918577;29;20511;-86
2021/08/24 00:28:00;;;;;;;1.00;0.40;;;16.70;77.50;;;;;;4902545;29;20052;-87
2021/08/24 00:30:27;;;;;;;2.15;0.60;;;16.70;77.50;;;;;;4913437;29;20048;-87
2021/08/24 00:32:54;;;;;;;1.73;0.32;;;16.70;77.50;;;;;;4887518;29;20051;-87
2021/08/24 00:35:22;;;;;;;1.38;0.43;;;16.70;77.50;;;;;;4889913;29;20076;-87
2021/08/24 00:37:49;;;;;;;1.30;0.43;;;16.70;77.60;;;;;;4897154;29;20136;-87
2021/08/24 00:40:17;;;;;;;2.47;0.50;;;16.60;77.60;;;;;;4887300;29;20080;-87
2021/08/24 00:42:45;;;;;;;1.70;0.70;;;16.70;77.60;;;;;;4888630;29;20059;-87
2021/08/24 00:45:15;;;;;;;1.10;0.50;;;16.60;77.50;;;;;;4919131;29;20508;-87
2021/08/24 00:47:46;;;;;;;1.35;0.63;;;16.60;77.60;;;;;;4916551;29;20173;-87
2021/08/24 00:50:31;;;;;;;1.13;0.40;;;16.60;77.80;;;;;;4909275;29;20131;-87
2021/08/24 00:53:03;;;;;;;1.85;0.50;;;16.60;77.60;;;;;;4917168;29;20070;-87
2021/08/24 00:55:32;;;;;;;1.38;0.50;;;16.60;77.80;;;;;;4917480;29;20037;-87
2021/08/24 00:58:05;;;;;;;2.08;0.52;;;16.50;77.80;;;;;;4901586;29;20044;-87
2021/08/24 01:00:34;;;;;;;1.35;0.43;;;16.60;77.90;;;;;;4893155;29;20040;-87
2021/08/24 01:03:07;;;;;;;1.13;0.40;;;16.50;77.90;;;;;;4917065;29;20064;-86
2021/08/24 01:05:37;;;;;;;1.00;0.40;;;16.50;77.90;;;;;;4917504;29;20052;-87
2021/08/24 01:08:08;;;;;;;2.53;0.70;;;16.50;78.00;;;;;;4917080;29;20051;-88
2021/08/24 01:10:44;;;;;;;2.28;0.73;;;16.40;78.00;;;;;;4912755;29;20060;-87
2021/08/24 01:13:23;;;;;;;1.50;0.50;;;16.40;78.20;;;;;;4885658;29;20052;-87
2021/08/24 01:16:01;;;;;;;2.08;0.68;;;16.40;78.20;;;;;;4917020;29;20048;-87
2021/08/24 01:18:54;;;;;;;1.02;0.50;;;16.40;78.30;;;;;;4915860;29;20127;-87
2021/08/24 01:21:47;;;;;;;0.85;0.30;;;16.40;78.30;;;;;;4899477;29;20049;-86
2021/08/24 01:24:39;;;;;;;0.82;0.40;;;16.40;78.50;;;;;;4897022;29;20049;-87
2021/08/24 01:27:11;;;;;;;2.60;0.30;;;16.30;78.60;;;;;;4901179;29;20050;-86
2021/08/24 01:30:02;;;;;;;1.58;0.40;;;16.20;78.70;;;;;;4918010;29;20044;-87
2021/08/24 01:32:54;;;;;;;1.42;0.68;;;16.20;78.70;;;;;;4917228;29;20047;-87
2021/08/24 01:35:55;;;;;;;1.20;0.40;;;16.20;78.80;;;;;;4916984;29;20056;-87
2021/08/24 01:38:32;;;;;;;1.65;0.60;;;16.20;78.80;;;;;;4913972;29;20041;-88
2021/08/24 01:41:18;;;;;;;2.30;0.50;;;16.10;79.00;;;;;;4914437;29;20045;-86
2021/08/24 01:43:48;;;;;;;2.28;0.60;;;16.10;79.00;;;;;;4916208;29;20470;-87
2021/08/24 01:46:28;;;;;;;2.25;0.55;;;16.10;79.20;;;;;;4912975;29;20056;-87
2021/08/24 01:49:00;;;;;;;1.70;0.60;;;16.10;79.30;;;;;;4915994;29;20815;-87
2021/08/24 01:51:35;;;;;;;2.13;0.60;;;16.10;79.40;;;;;;4901043;29;20052;-86
2021/08/24 01:54:09;;;;;;;1.48;0.50;;;16.00;79.40;;;;;;4928167;29;20052;-86
2021/08/24 01:56:38;;;;;;;2.63;0.90;;;16.00;79.50;;;;;;4904164;29;20040;-87
2021/08/24 01:59:11;;;;;;;1.30;0.50;;;16.00;79.60;;;;;;4918570;29;20047;-87
2021/08/24 02:01:44;;;;;;;1.35;0.40;;;16.00;79.60;;;;;;4901697;29;21794;-87
2021/08/24 02:04:21;;;;;;;1.58;0.73;;;16.00;79.70;;;;;;4914206;29;20535;-87
2021/08/24 02:06:49;;;;;;;2.25;0.70;;;16.00;79.90;;;;;;4916721;29;20059;-87
2021/08/24 02:09:29;;;;;;;2.38;0.60;;;15.90;79.90;;;;;;4916859;29;20140;-87
2021/08/24 02:11:58;;;;;;;1.30;0.50;;;15.90;79.90;;;;;;4916917;29;20055;-87
2021/08/24 02:14:27;;;;;;;1.55;0.55;;;15.90;80.00;;;;;;4917209;29;20047;-87
2021/08/24 02:16:56;;;;;;;1.52;0.50;;;15.90;80.10;;;;;;4897309;29;20472;-87
2021/08/24 02:19:32;;;;;;;1.42;0.60;;;15.90;80.10;;;;;;4892372;29;20052;-87
2021/08/24 02:22:10;;;;;;;2.60;0.82;;;15.90;80.20;;;;;;4913767;29;20111;-84
2021/08/24 02:24:42;;;;;;;2.00;0.70;;;15.80;80.20;;;;;;4886672;29;20104;-84
2021/08/24 02:27:17;;;;;;;3.28;0.73;;;15.80;80.40;;;;;;4915113;29;20094;-85
2021/08/24 02:29:44;;;;;;;2.17;0.70;;;15.80;80.50;;;;;;4897700;29;20073;-90
2021/08/24 02:32:19;;;;;;;2.05;0.88;;;15.80;80.60;;;;;;4883930;29;20104;-85
2021/08/24 02:34:53;;;;;;;1.60;0.60;;;15.80;80.60;;;;;;4900146;29;20123;-83
2021/08/24 02:37:24;;;;;;;2.20;0.70;;;15.70;80.60;;;;;;4919191;29;20040;-84
2021/08/24 02:40:33;;;;;;;2.63;0.70;;;15.70;80.70;;;;;;4914066;29;20108;-85
2021/08/24 02:43:06;;;;;;;1.10;0.43;;;15.70;80.80;;;;;;4924549;29;20131;-84
2021/08/24 02:45:40;;;;;;;0.93;0.43;;;15.70;81.00;;;;;;4915931;29;20051;-84
2021/08/24 02:48:11;;;;;;;2.38;0.50;;;15.60;81.00;;;;;;4914449;29;20040;-84
2021/08/24 02:50:40;;;;;;;1.77;0.70;;;15.60;81.10;;;;;;4915996;29;20051;-85
2021/08/24 02:53:08;;;;;;;1.98;0.80;;;15.60;81.20;;;;;;4899144;29;20071;-84
2021/08/24 02:55:36;;;;;;;2.47;0.65;;;15.60;81.30;;;;;;4913036;29;20048;-85
2021/08/24 02:58:03;;;;;;;1.80;0.60;;;15.60;81.30;;;;;;4897944;29;20549;-85
2021/08/24 03:00:30;;;;;;;1.48;0.60;;;15.60;81.40;;;;;;4912140;29;20099;-84
2021/08/24 03:02:57;;;;;;;1.30;0.60;;;15.60;81.40;;;;;;4900795;29;20060;-84
2021/08/24 03:05:24;;;;;;;3.80;0.80;;;15.60;81.60;;;;;;4903349;29;20074;-85
2021/08/24 03:07:52;;;;;;;1.75;0.60;;;15.60;81.60;;;;;;4903019;29;20076;-85
2021/08/24 03:10:25;;;;;;;2.38;0.65;;;15.60;82.20;;;;;;4888565;29;20412;-86
2021/08/24 03:13:16;;;;;;;3.33;1.05;;;15.60;81.70;;;;;;4919495;29;20055;-87
2021/08/24 03:15:53;;;;;;;2.72;0.50;;;15.60;81.80;;;;;;4899191;29;20048;-87
2021/08/24 03:18:34;;;;;;;2.03;1.00;;;15.60;81.80;;;;;;4919407;29;20052;-88
2021/08/24 03:21:20;;;;;;;1.63;0.70;;;15.60;81.90;;;;;;4918994;29;20087;-84
2021/08/24 03:23:49;;;;;;;2.65;1.00;;;15.60;81.90;;;;;;4903020;29;20060;-84
2021/08/24 03:26:23;;;;;;;1.92;0.93;;;15.50;82.00;;;;;;4902854;29;20143;-84
2021/08/24 03:28:50;;;;;;;2.90;1.15;;;15.50;82.10;;;;;;4902153;29;20040;-84
2021/08/24 03:31:19;;;;;;;3.30;0.93;;;15.50;82.20;;;;;;4881708;29;20520;-84
2021/08/24 03:33:47;;;;;;;5.28;1.23;;;15.50;82.30;;;;;;4917034;29;20048;-84
2021/08/24 03:36:15;;;;;;;1.70;0.70;;;15.50;82.40;;;;;;4916333;29;20091;-84
2021/08/24 03:38:42;;;;;;;3.00;0.90;;;15.40;82.40;;;;;;4904158;29;20378;-83
2021/08/24 03:41:11;;;;;;;2.60;0.98;;;15.40;82.50;;;;;;4912580;29;20055;-84
2021/08/24 03:43:38;;;;;;;2.40;0.95;;;15.40;82.60;;;;;;4919075;29;20405;-84
2021/08/24 03:46:06;;;;;;;2.25;1.00;;;15.40;82.70;;;;;;4900705;29;20044;-84
2021/08/24 03:48:33;;;;;;;2.63;0.82;;;15.40;82.70;;;;;;4900764;29;20543;-83
2021/08/24 03:51:00;;;;;;;1.77;0.85;;;15.40;82.80;;;;;;4889383;29;20063;-85
2021/08/24 03:53:27;;;;;;;3.22;1.00;;;15.40;82.80;;;;;;4902627;29;20047;-85
2021/08/24 03:55:54;;;;;;;2.72;0.90;;;15.40;82.90;;;;;;4902441;29;20045;-83
2021/08/24 03:58:21;;;;;;;1.95;0.93;;;15.40;82.90;;;;;;4902885;29;20159;-84
2021/08/24 04:00:51;;;;;;;4.28;0.98;;;15.50;83.00;;;;;;4901586;29;20404;-84
2021/08/24 04:03:19;;;;;;;3.63;0.82;;;15.40;83.10;;;;;;4891928;29;20056;-84
2021/08/24 04:05:46;;;;;;;3.63;1.05;;;15.40;83.20;;;;;;4897615;29;20088;-83
2021/08/24 04:08:13;;;;;;;3.42;1.10;;;15.40;83.20;;;;;;4907039;29;20091;-84
2021/08/24 04:10:43;;;;;;;3.80;1.55;;;15.40;83.40;;;;;;4902166;29;20047;-84
2021/08/24 04:13:10;;;;;;;2.03;0.90;;;15.40;83.30;;;;;;4899153;29;20047;-84
2021/08/24 04:15:38;;;;;;;2.88;0.90;;;15.40;83.30;;;;;;4899475;29;20411;-84
2021/08/24 04:18:08;;;;;;;2.38;0.95;;;15.40;83.30;;;;;;4914093;29;20545;-84
2021/08/24 04:20:35;;;;;;;2.67;1.10;;;15.40;83.40;;;;;;4916261;29;20046;-85
2021/08/24 04:23:02;;;;;;;2.70;0.82;;;15.40;83.50;;;;;;4916838;29;20048;-84
2021/08/24 04:25:29;;;;;;;4.28;1.10;;;15.30;83.60;;;;;;4885417;29;20051;-84
2021/08/24 04:27:57;;;;;;;3.83;0.90;;;15.30;83.70;;;;;;4900780;29;20049;-84
2021/08/24 04:30:24;;;;;;;2.58;1.08;;;15.30;83.80;;;;;;4902341;29;20044;-84
2021/08/24 04:32:52;;;;;;;2.15;1.27;;;15.30;83.80;;;;;;4894324;29;20033;-85
2021/08/24 04:35:20;;;;;;;2.85;1.50;;;15.30;83.90;;;;;;4915380;29;20126;-84
2021/08/24 04:37:47;;;;;;;3.60;1.25;;;15.30;84.00;;;;;;4899155;29;20048;-85
2021/08/24 04:40:14;;;;;;;3.05;0.80;;;15.30;84.00;;;;;;4914844;29;20043;-85
2021/08/24 04:42:42;;;;;;;4.68;1.40;;;15.30;84.00;;;;;;4889600;29;20049;-85
2021/08/24 04:45:10;;;;;;;3.03;1.08;;;15.20;84.10;;;;;;4891842;29;20052;-84
2021/08/24 04:47:38;;;;;;;4.10;1.58;;;15.20;84.10;;;;;;4886609;29;20055;-84
2021/08/24 04:50:07;;;;;;;3.17;1.70;;;15.20;84.40;;;;;;4930542;29;20067;-84
2021/08/24 04:52:34;;;;;;;3.63;1.80;;;15.20;84.40;;;;;;4898566;29;20059;-85
2021/08/24 04:55:02;;;;;;;3.95;1.20;;;15.20;84.40;;;;;;4884858;29;20045;-85
2021/08/24 04:57:34;;;;;;;2.95;1.13;;;15.20;84.50;;;;;;4898158;29;20059;-84
2021/08/24 05:00:01;;;;;;;1.85;1.00;;;15.20;84.60;;;;;;4900998;29;20075;-84
2021/08/24 05:02:29;;;;;;;3.20;1.27;;;15.20;84.60;;;;;;4906090;29;20040;-88
2021/08/24 05:04:56;;;;;;;2.55;1.15;;;15.20;84.70;;;;;;4915780;29;20415;-85
2021/08/24 05:07:23;;;;;;;2.40;1.13;;;15.20;84.70;;;;;;4913046;29;20059;-84
2021/08/24 05:09:50;;;;;;;4.60;1.63;;;15.20;85.30;;;;;;4914981;29;20131;-84
2021/08/24 05:12:17;;;;;;;2.55;1.17;;;15.20;84.70;;;;;;4913219;29;20119;-84
2021/08/24 05:14:45;;;;;;;1.88;0.80;;;15.20;84.70;;;;;;4882920;29;20044;-84
2021/08/24 05:17:12;;;;;;;2.10;1.23;;;15.20;84.70;;;;;;4898909;29;20044;-84
2021/08/24 05:19:39;;;;;;;2.40;1.00;;;15.20;84.80;;;;;;4914591;29;20037;-84
2021/08/24 05:22:06;;;;;;;3.88;1.42;;;15.20;84.80;;;;;;4904371;29;20066;-85
2021/08/24 05:24:34;;;;;;;3.28;1.52;;;15.30;84.90;;;;;;4909874;29;20072;-84
2021/08/24 05:27:03;;;;;;;2.83;1.10;;;15.30;84.80;;;;;;4906901;29;20059;-84
2021/08/24 05:29:30;;;;;;;5.22;1.60;;;15.30;84.80;;;;;;4915344;29;20054;-84
2021/08/24 05:31:58;;;;;;;2.92;1.15;;;15.30;84.80;;;;;;4875682;29;20048;-85
2021/08/24 05:34:25;;;;;;;4.70;1.30;;;15.30;84.80;;;;;;4920540;29;20112;-85
2021/08/24 05:36:52;;;;;;;2.92;1.23;;;15.40;84.90;;;;;;4900467;29;20060;-84
2021/08/24 05:39:21;;;;;;;3.40;1.30;;;15.40;84.80;;;;;;4902328;29;20170;-84
2021/08/24 05:41:49;;;;;;;4.00;1.17;;;15.40;84.90;;;;;;4909506;29;20076;-84
2021/08/24 05:44:17;;;;;;;4.75;1.40;;;15.40;84.80;;;;;;4907361;29;20155;-84
2021/08/24 05:46:45;;;;;;;3.70;1.83;;;15.50;84.80;;;;;;4913484;29;20055;-84
2021/08/24 05:49:12;;;;;;;3.13;1.65;;;15.50;84.80;;;;;;4895357;29;20055;-84
2021/08/24 05:51:39;;;;;;;3.35;1.00;;;15.60;84.80;;;;;;4898384;29;20048;-84
2021/08/24 05:54:07;;;;;;;3.35;1.20;;;15.60;84.70;;;;;;4892648;29;20157;-84
2021/08/24 05:56:34;;;;;;;4.18;1.63;;;15.70;84.70;;;;;;4910904;29;20041;-84
2021/08/24 05:59:01;;;;;;;2.88;1.63;;;15.70;84.70;;;;;;4913785;29;20095;-85
2021/08/24 06:01:31;;;;;;;4.03;1.60;;;15.80;84.60;;;;;;4901093;29;20404;-84
2021/08/24 06:04:00;;;;;;;6.07;1.65;;;15.80;84.60;;;;;;4911094;29;20060;-85
2021/08/24 06:06:33;;;;;;;2.70;1.10;;;15.90;84.60;;;;;;4896975;29;20056;-84
2021/08/24 06:09:05;;;;;;;3.35;1.58;;;16.00;84.50;;;;;;4898287;29;20520;-84
2021/08/24 06:11:39;;;;;;;3.47;1.58;;;16.00;84.40;;;;;;4913621;29;20044;-84
2021/08/24 06:14:07;;;;;;;3.08;1.52;;;16.00;84.40;;;;;;4913391;29;20126;-86
2021/08/24 06:16:37;;;;;;;3.92;1.70;;;16.10;84.40;;;;;;4883104;29;20143;-85
2021/08/24 06:19:04;;;;;;;3.78;1.77;;;16.20;84.40;;;;;;4910515;29;20500;-84
2021/08/24 06:21:32;;;;;;;3.28;1.65;;;16.20;84.40;;;;;;4883241;29;20464;-84
2021/08/24 06:24:02;;;;;;;3.35;1.45;;;16.20;84.40;;;;;;4911343;29;20127;-84
2021/08/24 06:26:29;;;;;;;4.70;1.80;;;16.30;84.40;;;;;;4910051;29;20140;-86
2021/08/24 06:28:57;;;;;;;4.75;1.90;;;16.30;84.30;;;;;;4895435;29;20047;-84
2021/08/24 06:31:40;;;;;;;3.00;1.25;;;16.40;84.30;;;;;;4911381;29;20143;-84
2021/08/24 06:35:07;;;;;;;3.55;1.50;;;16.50;84.20;;;;;;4911599;29;20051;-83
2021/08/24 06:37:34;;;;;;;3.65;1.58;;;16.50;84.00;;;;;;4911675;29;20051;-84
2021/08/24 06:40:03;;;;;;;3.45;1.48;;;16.50;84.20;;;;;;4885387;29;21114;-84
2021/08/24 06:42:38;;;;;;;3.75;2.10;;;16.50;84.20;;;;;;4898125;29;20044;-84
2021/08/24 06:45:06;;;;;;;3.22;1.70;;;16.60;84.20;;;;;;4900353;29;20123;-83
2021/08/24 06:47:35;;;;;;;3.42;1.67;;;16.60;84.20;;;;;;4897326;29;20052;-83
2021/08/24 06:50:02;;;;;;;2.65;1.58;;;16.60;84.20;;;;;;4912673;29;20048;-83
2021/08/24 06:52:29;;;;;;;3.30;1.80;;;16.70;84.20;;;;;;4910026;29;20055;-83
2021/08/24 06:54:56;;;;;;;4.35;1.52;;;16.80;84.10;;;;;;4880533;29;20067;-83
2021/08/24 06:57:23;;;;;;;4.55;2.17;;;16.80;84.00;;;;;;4911437;29;20040;-83
2021/08/24 06:59:50;;;;;;;4.93;1.83;;;16.90;84.00;;;;;;4892749;29;20041;-83
2021/08/24 07:02:17;;;;;;;4.80;2.22;;;16.90;83.90;;;;;;4896323;29;20052;-83
2021/08/24 07:04:48;;;;;;;4.55;2.47;;;17.00;83.90;;;;;;4893951;29;20054;-83
2021/08/24 07:07:16;;;;;;;3.75;1.80;;;17.00;83.90;;;;;;4884121;29;20051;-83
2021/08/24 07:09:43;;;;;;;4.15;1.90;;;17.10;83.90;;;;;;4897559;29;20056;-83
2021/08/24 07:12:10;;;;;;;6.03;2.28;;;17.10;83.80;;;;;;4877718;29;20068;-82
2021/08/24 07:14:37;;;;;;;3.92;1.65;;;17.20;83.80;;;;;;4879347;29;20053;-82
2021/08/24 07:17:04;;;;;;;3.70;1.65;;;17.20;83.70;;;;;;4882912;29;20055;-83
2021/08/24 07:19:31;;;;;;;2.63;1.42;;;17.30;83.70;;;;;;4895789;29;20142;-83
2021/08/24 07:21:58;;;;;;;4.20;1.98;;;17.30;83.60;;;;;;4923268;29;20059;-83
2021/08/24 07:24:27;;;;;;;3.50;2.13;;;17.40;83.50;;;;;;4897743;29;20063;-81
2021/08/24 07:26:54;;;;;;;5.03;2.25;;;17.50;83.40;;;;;;4899276;29;20123;-83
2021/08/24 07:29:21;;;;;;;4.10;2.00;;;17.50;83.90;;;;;;4893120;29;20044;-83
2021/08/24 07:31:48;;;;;;;2.75;1.40;;;17.60;83.30;;;;;;4871311;29;20045;-83
2021/08/24 07:34:16;;;;;;;5.22;2.00;;;17.60;83.20;;;;;;4874719;29;20151;-83
2021/08/24 07:36:42;;;;;;;5.00;1.90;;;17.70;83.10;;;;;;4896108;29;20370;-83
2021/08/24 07:39:10;;;;;;;3.95;1.75;;;17.80;83.00;;;;;;4892787;29;20055;-82
2021/08/24 07:41:37;;;;;;;3.20;2.00;;;17.80;82.90;;;;;;4910506;29;20063;-83
2021/08/24 07:44:04;;;;;;;3.05;1.50;;;17.90;82.70;;;;;;4909917;29;20090;-83
2021/08/24 07:46:32;;;;;;;2.50;1.70;;;18.00;82.60;;;;;;4920744;29;20565;-81
2021/08/24 07:48:59;;;;;;;4.20;1.92;;;18.10;82.50;;;;;;4916612;29;20099;-80
2021/08/24 07:51:26;;;;;;;3.25;1.80;;;18.10;82.30;;;;;;4899377;29;20540;-80
2021/08/24 07:53:53;;;;;;;3.63;1.20;;;18.10;82.30;;;;;;4901831;29;20048;-80
2021/08/24 07:56:21;;;;;;;4.78;1.92;;;18.20;82.20;;;;;;4912933;29;20044;-80
2021/08/24 07:58:49;;;;;;;3.92;1.48;;;18.30;82.10;;;;;;4913033;29;20112;-83
2021/08/24 08:01:16;;;;;;;1.88;1.00;;;18.30;82.00;;;;;;4912082;29;20039;-82
2021/08/24 08:03:44;;;;;;;1.58;0.85;;;18.40;81.80;;;;;;4883517;29;20044;-82
2021/08/24 08:06:11;;;;;;;2.38;0.98;;;18.50;81.70;;;;;;4912151;29;20045;-83
2021/08/24 08:08:39;;;;;;;2.80;1.30;;;18.60;81.50;;;;;;4899685;29;20045;-83
2021/08/24 08:11:06;;;;;;;2.35;1.20;;;18.70;81.40;;;;;;4914020;29;20131;-80
2021/08/24 08:13:33;;;;;;;2.63;0.82;;;18.80;81.30;;;;;;4898298;29;20048;-79
2021/08/24 08:16:00;;;;;;;3.65;1.17;;;18.90;81.20;;;;;;4900964;29;20123;-80
2021/08/24 08:18:27;;;;;;;3.03;1.40;;;19.00;81.00;;;;;;4915403;29;20519;-82
2021/08/24 08:21:29;;;;;;;3.78;1.60;;;19.00;80.80;;;;;;4899031;29;20048;-84
2021/08/24 08:27:40;;;;;;;2.90;0.80;;;19.30;80.40;;;;;;5031146;23;20059;-96
2021/08/24 08:31:17;;;;;;;2.25;1.13;;;19.30;80.20;;;;;;4912444;29;20052;-96
2021/08/24 08:34:06;;;;;;;1.48;0.70;;;19.40;79.80;;;;;;4883314;29;20039;-84
2021/08/24 08:36:33;;;;;;;1.83;0.90;;;19.40;79.70;;;;;;4881241;29;20135;-82
2021/08/24 08:39:00;;;;;;;2.33;1.10;;;19.50;79.60;;;;;;4881924;29;20521;-83
2021/08/24 08:41:35;;;;;;;3.20;1.13;;;19.60;79.40;;;;;;4899556;29;20398;-84
2021/08/24 08:44:16;;;;;;;3.05;1.02;;;19.60;79.20;;;;;;4896719;29;20528;-80
2021/08/24 08:46:49;;;;;;;2.30;1.00;;;19.70;79.10;;;;;;4896724;29;20455;-80
2021/08/24 08:49:41;;;;;;;2.67;1.27;;;19.70;79.00;;;;;;4901749;29;20123;-83
2021/08/24 08:52:35;;;;;;;2.83;1.27;;;19.80;79.00;;;;;;4895327;29;20082;-84
2021/08/24 08:55:09;;;;;;;3.13;1.23;;;19.90;78.60;;;;;;4913111;29;20511;-83
2021/08/24 08:58:22;;;;;;;2.50;1.20;;;19.90;78.60;;;;;;4889170;29;20052;-86
2021/08/24 09:00:52;;;;;;;3.30;0.98;;;20.00;78.30;;;;;;4823284;29;20045;-80
2021/08/24 09:03:40;;;;;;;3.33;1.40;;;20.00;78.30;;;;;;4848550;29;20128;-87
2021/08/24 09:06:08;;;;;;;1.90;1.00;;;20.10;78.10;;;;;;4861115;29;20460;-86
2021/08/24 09:08:38;;;;;;;2.55;0.70;;;20.10;78.20;;;;;;4892751;29;20052;-86
2021/08/24 09:11:10;;;;;;;1.65;0.80;;;20.20;78.00;;;;;;4871517;29;20568;-84
2021/08/24 09:13:48;;;;;;;1.67;0.80;;;20.20;77.80;;;;;;4897455;29;20409;-82
2021/08/24 09:16:28;;;;;;;1.00;0.55;;;20.40;77.70;;;;;;4892143;29;20064;-86
2021/08/24 09:19:09;;;;;;;2.42;0.77;;;20.40;77.50;;;;;;4911157;29;20048;-85
2021/08/24 09:21:41;;;;;;;2.40;0.90;;;20.50;77.30;;;;;;4896744;29;20065;-86
2021/08/24 09:24:20;;;;;;;1.70;0.80;;;20.50;77.20;;;;;;4883451;29;20105;-84
2021/08/24 09:27:02;;;;;;;1.95;0.70;;;20.60;77.70;;;;;;4895845;29;20049;-84
2021/08/24 09:29:40;;;;;;;1.70;0.60;;;20.60;77.00;;;;;;4894437;29;20052;-83
2021/08/24 09:32:09;;;;;;;3.53;1.25;;;20.70;76.90;;;;;;4896114;29;20109;-82
2021/08/24 09:34:44;;;;;;;2.63;1.02;;;20.90;76.60;;;;;;4879919;29;20055;-83
2021/08/24 09:37:23;;;;;;;3.00;0.90;;;20.90;76.40;;;;;;4898638;29;20519;-81
2021/08/24 09:40:03;;;;;;;1.58;0.88;;;20.90;76.40;;;;;;4901080;29;20040;-81
2021/08/24 09:42:46;;;;;;;2.28;0.88;;;21.00;76.40;;;;;;4897166;29;20071;-81
2021/08/24 09:45:19;;;;;;;1.45;0.90;;;21.20;76.20;;;;;;4884990;29;20049;-86
2021/08/24 09:47:59;;;;;;;1.45;0.80;;;21.30;75.90;;;;;;4887568;29;20056;-82
2021/08/24 09:50:45;;;;;;;1.73;0.70;;;21.50;75.70;;;;;;4878578;29;20048;-82
2021/08/24 09:53:42;;;;;;;1.77;0.80;;;21.70;75.10;;;;;;4888080;29;20049;-82
2021/08/24 09:56:11;;;;;;;3.38;0.90;;;21.80;74.80;;;;;;4866577;29;20401;-82
2021/08/24 09:58:46;;;;;;;1.42;0.70;;;21.90;74.70;;;;;;4896840;29;20048;-83
2021/08/24 10:01:15;;;;;;;1.52;0.77;;;22.10;74.40;;;;;;4871721;29;20404;-85
2021/08/24 10:03:48;;;;;;;1.42;0.77;;;22.10;74.20;;;;;;4911998;29;20044;-84
2021/08/24 10:06:40;;;;;;;2.70;1.02;;;22.20;74.00;;;;;;4890628;29;20136;-87
2021/08/24 10:09:12;;;;;;;1.65;0.80;;;22.20;73.70;;;;;;4891073;29;20113;-86
2021/08/24 10:11:39;;;;;;;3.60;0.80;;;22.30;73.70;;;;;;4897811;29;20488;-78
2021/08/24 10:14:11;;;;;;;2.40;0.80;;;22.40;73.50;;;;;;4870773;29;20048;-79
2021/08/24 10:16:41;;;;;;;1.60;0.80;;;22.50;73.20;;;;;;4887748;29;20096;-78
2021/08/24 10:19:18;;;;;;;1.20;0.60;;;22.60;72.90;;;;;;4883134;29;20049;-81
2021/08/24 10:22:02;;;;;;;1.33;0.52;;;22.80;72.10;;;;;;4881725;29;20053;-80
2021/08/24 10:24:30;;;;;;;1.85;1.00;;;22.90;71.50;;;;;;4883637;29;20054;-79
2021/08/24 10:27:02;;;;;;;1.48;0.60;;;23.00;71.00;;;;;;4880550;29;20124;-81
2021/08/24 10:29:33;;;;;;;1.65;0.80;;;23.00;70.60;;;;;;4864354;29;20053;-81
2021/08/24 10:32:04;;;;;;;1.88;0.60;;;22.80;70.80;;;;;;4870604;29;20123;-81
2021/08/24 10:34:39;;;;;;;1.20;0.60;;;22.70;71.20;;;;;;4883162;29;20045;-80
2021/08/24 10:37:25;;;;;;;1.38;0.60;;;22.70;71.20;;;;;;4892478;29;20408;-82
2021/08/24 10:39:55;;;;;;;2.28;0.80;;;22.70;71.10;;;;;;4912380;29;20481;-83
2021/08/24 10:42:27;;;;;;;2.28;0.80;;;22.70;71.10;;;;;;4888787;29;20122;-83
2021/08/24 10:45:17;;;;;;;1.23;0.57;;;22.70;70.90;;;;;;4895580;29;20052;-80
2021/08/24 10:47:52;;;;;;;1.95;0.50;;;22.80;70.40;;;;;;4889698;29;20805;-82
2021/08/24 10:50:37;;;;;;;1.17;0.50;;;23.00;69.90;;;;;;4881206;29;20402;-92
2021/08/24 10:53:27;;;;;;;1.73;0.68;;;23.40;68.90;;;;;;4905988;29;20045;-86
2021/08/24 10:56:07;;;;;;;1.38;0.50;;;23.20;68.00;;;;;;4858092;29;20049;-86
2021/08/24 10:58:49;;;;;;;1.27;0.50;;;23.00;68.30;;;;;;4860149;29;20044;-84
2021/08/24 11:01:32;;;;;;;1.40;0.60;;;22.90;68.50;;;;;;4882203;29;20498;-87
2021/08/24 11:04:05;;;;;;;1.67;0.73;;;22.80;68.50;;;;;;4877105;29;20155;-88
2021/08/24 11:06:40;;;;;;;1.98;0.60;;;23.10;67.70;;;;;;4900958;29;20044;-80
2021/08/24 11:09:36;;;;;;;4.00;0.77;;;23.60;66.80;;;;;;4890619;29;20082;-87
2021/08/24 11:12:09;;;;;;;1.88;0.60;;;23.80;65.40;;;;;;4889297;29;20063;-86
2021/08/24 11:14:55;;;;;;;2.15;0.60;;;23.50;66.00;;;;;;4895677;29;20047;-89
2021/08/24 11:17:57;;;;;;;1.65;0.60;;;23.30;66.30;;;;;;4892595;29;20044;-89
2021/08/24 11:20:48;;;;;;;2.37;0.90;;;23.00;66.70;;;;;;4889159;29;20072;-86
2021/08/24 11:23:41;;;;;;;1.00;0.40;;;22.90;66.70;;;;;;4899376;29;20652;-84
2021/08/24 11:26:11;;;;;;;1.23;0.50;;;22.70;66.90;;;;;;4882954;29;20414;-81
2021/08/24 11:28:41;;;;;;;1.00;0.40;;;22.80;67.00;;;;;;4911290;29;20112;-80
2021/08/24 11:31:29;;;;;;;1.38;0.68;;;23.60;65.40;;;;;;4914244;29;20055;-81
2021/08/24 11:34:04;;;;;;;1.83;0.47;;;24.40;61.70;;;;;;4899599;29;20123;-78
2021/08/24 11:36:36;;;;;;;1.15;0.45;;;24.70;61.60;;;;;;4899754;29;20040;-83
2021/08/24 11:39:14;;;;;;;1.17;0.40;;;25.30;60.70;;;;;;4899753;29;20058;-86
2021/08/24 11:41:45;;;;;;;2.92;0.60;;;25.60;59.20;;;;;;4894580;29;20041;-87
2021/08/24 11:44:21;;;;;;;0.95;0.40;;;25.60;59.10;;;;;;4883647;29;20049;-95
2021/08/24 11:46:55;;;;;;;1.15;0.32;;;25.90;58.70;;;;;;4897838;29;20067;-87
2021/08/24 11:49:31;;;;;;;2.15;0.90;;;26.10;58.30;;;;;;4896694;29;20420;-85
2021/08/24 11:52:11;;;;;;;2.15;0.80;;;26.00;57.60;;;;;;4895515;29;20052;-82
2021/08/24 11:54:55;;;;;;;2.38;0.80;;;25.90;57.70;;;;;;4908087;29;20041;-82
2021/08/24 11:57:43;;;;;;;2.05;0.55;;;26.00;57.60;;;;;;4897578;29;20048;-82
2021/08/24 12:00:12;;;;;;;1.45;0.60;;;26.00;57.50;;;;;;4906936;29;20040;-86
2021/08/24 12:02:46;;;;;;;4.50;0.50;;;25.90;57.10;;;;;;4897462;29;20049;-86
2021/08/24 12:05:23;;;;;;;2.97;0.73;;;25.80;56.90;;;;;;4903427;29;20072;-83
2021/08/24 12:08:04;;;;;;;1.70;0.60;;;25.40;57.10;;;;;;4896719;29;20060;-88
2021/08/24 12:10:33;;;;;;;1.67;0.70;;;25.50;57.30;;;;;;4899354;29;20088;-87
2021/08/24 12:13:07;;;;;;;1.30;0.60;;;25.40;57.60;;;;;;4869588;29;20520;-86
2021/08/24 12:15:44;;;;;;;2.10;0.70;;;24.90;57.80;;;;;;4880393;29;20052;-85
2021/08/24 12:18:17;;;;;;;1.67;0.60;;;24.50;58.70;;;;;;4896595;29;20045;-85
2021/08/24 12:20:46;;;;;;;1.55;0.60;;;24.10;59.30;;;;;;4890873;29;20048;-80
2021/08/24 12:23:29;;;;;;;2.35;0.63;;;23.80;59.90;;;;;;4888593;29;20061;-83
2021/08/24 12:25:57;;;;;;;1.60;0.63;;;23.60;60.40;;;;;;4881776;29;20128;-82
2021/08/24 12:28:24;;;;;;;2.45;0.82;;;23.30;60.80;;;;;;4885251;29;20048;-86
2021/08/24 12:31:00;;;;;;;1.75;0.60;;;23.20;60.80;;;;;;4885076;29;20072;-81
2021/08/24 12:33:35;;;;;;;1.30;0.60;;;23.10;60.90;;;;;;4893777;29;20049;-88
2021/08/24 12:36:17;;;;;;;1.58;0.80;;;23.00;61.10;;;;;;4926081;29;20051;-82
2021/08/24 12:38:47;;;;;;;0.93;0.60;;;23.00;60.50;;;;;;4887453;29;20554;-84
2021/08/24 12:41:36;;;;;;;3.63;0.80;;;22.90;60.80;;;;;;4907867;29;20480;-86
2021/08/24 12:44:14;;;;;;;2.67;0.88;;;22.90;60.40;;;;;;4896999;29;20405;-83
2021/08/24 12:47:13;;;;;;;1.98;0.77;;;22.90;60.60;;;;;;4902699;29;20048;-82
2021/08/24 12:49:40;;;;;;;1.80;0.77;;;22.90;60.50;;;;;;4858231;29;20386;-84
2021/08/24 12:52:29;;;;;;;2.00;0.75;;;23.00;60.50;;;;;;4893534;29;20045;-84
2021/08/24 12:55:01;;;;;;;2.83;0.70;;;23.10;59.80;;;;;;4887191;29;20048;-84
2021/08/24 12:57:33;;;;;;;;;;;23.20;59.80;;;;;;4913386;29;20049;-83
2021/08/24 13:00:36;;;;;;;1.25;0.55;;;23.10;60.20;;;;;;4873851;29;19972;-80
2021/08/24 13:03:25;;;;;;;2.17;0.80;;;23.10;59.70;;;;;;4852726;29;20409;-79
2021/08/24 13:06:14;;;;;;;1.40;0.52;;;23.20;59.70;;;;;;4916103;29;20044;-82
2021/08/24 13:08:42;;;;;;;1.70;0.80;;;23.40;59.80;;;;;;4894622;29;20060;-80
2021/08/24 13:11:33;;;;;;;2.20;0.98;;;23.60;59.70;;;;;;4880687;29;20112;-80
2021/08/24 13:14:04;;;;;;;3.65;0.85;;;23.70;58.60;;;;;;4891378;29;20045;-86
2021/08/24 13:16:54;;;;;;;2.25;0.95;;;23.70;58.80;;;;;;4889628;29;20037;-82
2021/08/24 13:19:26;;;;;;;2.80;0.77;;;23.60;58.70;;;;;;4902793;29;20414;-82
2021/08/24 13:21:55;;;;;;;1.90;0.60;;;23.50;58.90;;;;;;4881432;29;20952;-82
2021/08/24 13:24:31;;;;;;;1.67;0.60;;;23.50;59.00;;;;;;4893130;29;20049;-78